KALM/ALM METAR and TAF weather

Enter ICAO airport designator
Station Type Date Time Source
KALM METAR 2019/04/25 21:55 UTC NOAA

KALM 252155Z AUTO 14003KT 10SM CLR 28/00 A3004 RMK AO2


Station Type Date Time Source
KALM Decoded METAR 2019/04/25 21:55 UTC NOAA

Alamogordo-White, NM, United States (KALM) 32-50N 105-59W
Apr 25, 2019 - 05:55 PM EDT / 2019.04.25 2155 UTC
Wind: from the SE (140 degrees) at 3 MPH (3 KT):0
Visibility: 10 mile(s):0
Sky conditions: clear
Temperature: 82 F (28 C)
Dew Point: 32 F (0 C)
Relative Humidity: 16%
Pressure (altimeter): 30.04 in. Hg (1017 hPa)
ob: KALM 252155Z AUTO 14003KT 10SM CLR 28/00 A3004 RMK AO2
cycle: 22

Station Type Date Time Source
KALM TAF UTC NOAA

Error!

Example: see airport list